OAL929 HDAM-HCMM
Flight info
| Callsign | OAL929 |
|---|---|
| Flight time | 1h 28m |
| Altitude | 37000 |
| Route | LUBAR UR775G ALNAB R775 SOLUL DCT IBROL |
| Aircraft | B738/M-V/N |
Departure
| Time | 2026-04-27 16:42 |
|---|---|
| Airport | Djibouti-Ambouli Airport (HDAM) |
Arrival
| Time | 2026-04-27 18:10 |
|---|---|
| Airport | Aden Adde International Airport (HCMM) |
| Time | Latitude | Longitude | Altitude | Speed | Heading |
|---|---|---|---|---|---|
| 2026-04-27 16:33 | 11.54534 | 43.14617 | 55 ft | 0 kts | 93° |
| 2026-04-27 16:39 | 11.54535 | 43.14624 | 47 ft | 6 kts | 82° |
| 2026-04-27 16:39 | 11.54579 | 43.14625 | 50 ft | 8 kts | 322° |
| 2026-04-27 16:39 | 11.54651 | 43.14607 | 49 ft | 13 kts | 353° |
| 2026-04-27 16:40 | 11.54713 | 43.14605 | 48 ft | 0 kts | 0° |
| 2026-04-27 16:41 | 11.54719 | 43.14606 | 51 ft | 7 kts | 6° |
| 2026-04-27 16:41 | 11.54753 | 43.14762 | 54 ft | 60 kts | 90° |
| 2026-04-27 16:41 | 11.54743 | 43.15488 | 47 ft | 142 kts | 91° |
| 2026-04-27 16:42 | 11.54730 | 43.16677 | 426 ft | 176 kts | 90° |
| 2026-04-27 16:42 | 11.54675 | 43.17943 | 1466 ft | 184 kts | 104° |
| 2026-04-27 16:42 | 11.53925 | 43.19044 | 2145 ft | 210 kts | 144° |
| 2026-04-27 16:42 | 11.52548 | 43.19767 | 2409 ft | 233 kts | 152° |
| 2026-04-27 16:43 | 11.51056 | 43.20543 | 2724 ft | 253 kts | 152° |
| 2026-04-27 16:43 | 11.49457 | 43.21400 | 3249 ft | 264 kts | 151° |
| 2026-04-27 16:43 | 11.47831 | 43.22285 | 4064 ft | 265 kts | 151° |
| 2026-04-27 16:43 | 11.46197 | 43.23183 | 4861 ft | 268 kts | 151° |
| 2026-04-27 16:44 | 11.44540 | 43.24101 | 5565 ft | 275 kts | 150° |
| 2026-04-27 16:44 | 11.42847 | 43.25045 | 6265 ft | 280 kts | 150° |
| 2026-04-27 16:44 | 11.41126 | 43.26006 | 6669 ft | 283 kts | 150° |
| 2026-04-27 16:44 | 11.39410 | 43.26967 | 6853 ft | 282 kts | 150° |
| 2026-04-27 16:45 | 11.37669 | 43.27943 | 6825 ft | 286 kts | 150° |
| 2026-04-27 16:45 | 11.35934 | 43.28916 | 6822 ft | 284 kts | 150° |
| 2026-04-27 16:45 | 11.34206 | 43.29886 | 6841 ft | 283 kts | 150° |
| 2026-04-27 16:45 | 11.32484 | 43.30851 | 6826 ft | 282 kts | 150° |
| 2026-04-27 16:46 | 11.30762 | 43.31816 | 6837 ft | 281 kts | 150° |
| 2026-04-27 16:46 | 11.29047 | 43.32772 | 6835 ft | 282 kts | 151° |
| 2026-04-27 16:46 | 11.27222 | 43.33577 | 7029 ft | 289 kts | 158° |
| 2026-04-27 16:46 | 11.25352 | 43.34255 | 7831 ft | 287 kts | 159° |
| 2026-04-27 16:47 | 11.23469 | 43.34918 | 8654 ft | 287 kts | 159° |
| 2026-04-27 16:47 | 11.21537 | 43.35604 | 9329 ft | 293 kts | 159° |
| 2026-04-27 16:47 | 11.19606 | 43.36298 | 10047 ft | 295 kts | 159° |
| 2026-04-27 16:47 | 11.17623 | 43.37018 | 10362 ft | 314 kts | 158° |
| 2026-04-27 16:48 | 11.15490 | 43.37801 | 10506 ft | 336 kts | 159° |
| 2026-04-27 16:48 | 11.13228 | 43.38633 | 10638 ft | 356 kts | 159° |
| 2026-04-27 16:48 | 11.10843 | 43.39513 | 10860 ft | 371 kts | 159° |
| 2026-04-27 16:49 | 11.05948 | 43.41321 | 12008 ft | 376 kts | 159° |
| 2026-04-27 16:49 | 11.03476 | 43.42234 | 12579 ft | 379 kts | 159° |
| 2026-04-27 16:49 | 11.00980 | 43.43157 | 13084 ft | 384 kts | 159° |
| 2026-04-27 16:49 | 10.98451 | 43.44093 | 13615 ft | 388 kts | 159° |
| 2026-04-27 16:50 | 10.95905 | 43.45035 | 14092 ft | 391 kts | 159° |
| 2026-04-27 16:50 | 10.93340 | 43.45983 | 14594 ft | 393 kts | 159° |
| 2026-04-27 16:50 | 10.90763 | 43.46936 | 15101 ft | 395 kts | 159° |
| 2026-04-27 16:50 | 10.88170 | 43.47890 | 15575 ft | 398 kts | 159° |
| 2026-04-27 16:51 | 10.85552 | 43.48847 | 16049 ft | 401 kts | 159° |
| 2026-04-27 16:51 | 10.82952 | 43.49795 | 16519 ft | 403 kts | 159° |
| 2026-04-27 16:51 | 10.80270 | 43.50774 | 16982 ft | 406 kts | 159° |
| 2026-04-27 16:51 | 10.77600 | 43.51747 | 17424 ft | 409 kts | 159° |
| 2026-04-27 16:52 | 10.74917 | 43.52727 | 17867 ft | 411 kts | 159° |
| 2026-04-27 16:52 | 10.72247 | 43.53702 | 18255 ft | 414 kts | 159° |
| 2026-04-27 16:52 | 10.69524 | 43.54697 | 18628 ft | 417 kts | 159° |
| 2026-04-27 16:52 | 10.66755 | 43.55708 | 18985 ft | 419 kts | 159° |
| 2026-04-27 16:53 | 10.63999 | 43.56715 | 19343 ft | 422 kts | 159° |
| 2026-04-27 16:53 | 10.61265 | 43.57713 | 19696 ft | 424 kts | 159° |
| 2026-04-27 16:53 | 10.58439 | 43.58745 | 20025 ft | 427 kts | 159° |
| 2026-04-27 16:53 | 10.55632 | 43.59768 | 20361 ft | 430 kts | 159° |
| 2026-04-27 16:54 | 10.52876 | 43.60857 | 20688 ft | 432 kts | 155° |
| 2026-04-27 16:54 | 10.50103 | 43.62143 | 21020 ft | 434 kts | 153° |
| 2026-04-27 16:54 | 10.47379 | 43.63489 | 21360 ft | 436 kts | 152° |
| 2026-04-27 16:54 | 10.44655 | 43.64855 | 21664 ft | 438 kts | 152° |
| 2026-04-27 16:55 | 10.41909 | 43.66223 | 21952 ft | 441 kts | 153° |
| 2026-04-27 16:55 | 10.39138 | 43.67586 | 22264 ft | 444 kts | 153° |
| 2026-04-27 16:55 | 10.36344 | 43.68945 | 22571 ft | 446 kts | 153° |
| 2026-04-27 16:55 | 10.33535 | 43.70300 | 22864 ft | 448 kts | 153° |
| 2026-04-27 16:56 | 10.30707 | 43.71659 | 23137 ft | 451 kts | 153° |
| 2026-04-27 16:56 | 10.27863 | 43.73022 | 23424 ft | 453 kts | 153° |
| 2026-04-27 16:56 | 10.25040 | 43.74373 | 23662 ft | 455 kts | 153° |
| 2026-04-27 16:56 | 10.22172 | 43.75746 | 23897 ft | 457 kts | 153° |
| 2026-04-27 16:57 | 10.19294 | 43.77123 | 24141 ft | 458 kts | 153° |
| 2026-04-27 16:57 | 10.16405 | 43.78506 | 24378 ft | 460 kts | 153° |
| 2026-04-27 16:57 | 10.13507 | 43.79894 | 24607 ft | 462 kts | 153° |
| 2026-04-27 16:57 | 10.10601 | 43.81285 | 24827 ft | 463 kts | 153° |
| 2026-04-27 16:58 | 10.07678 | 43.82685 | 25052 ft | 465 kts | 153° |
| 2026-04-27 16:58 | 10.04743 | 43.84090 | 25266 ft | 466 kts | 153° |
| 2026-04-27 16:58 | 10.01805 | 43.85495 | 25485 ft | 468 kts | 153° |
| 2026-04-27 16:58 | 9.98853 | 43.86908 | 25704 ft | 470 kts | 153° |
| 2026-04-27 16:59 | 9.95889 | 43.88326 | 25908 ft | 471 kts | 153° |
| 2026-04-27 16:59 | 9.92921 | 43.89745 | 26115 ft | 473 kts | 153° |
| 2026-04-27 16:59 | 9.89940 | 43.91170 | 26317 ft | 474 kts | 153° |
| 2026-04-27 16:59 | 9.86953 | 43.92598 | 26516 ft | 476 kts | 153° |
| 2026-04-27 17:00 | 9.82941 | 43.94516 | 26772 ft | 478 kts | 153° |
| 2026-04-27 17:00 | 9.77928 | 43.96911 | 27094 ft | 480 kts | 153° |
| 2026-04-27 17:00 | 9.74901 | 43.98357 | 27268 ft | 482 kts | 153° |
| 2026-04-27 17:01 | 9.71867 | 43.99806 | 27437 ft | 483 kts | 153° |
| 2026-04-27 17:01 | 9.68820 | 44.01261 | 27622 ft | 484 kts | 153° |
| 2026-04-27 17:01 | 9.65769 | 44.02718 | 27786 ft | 486 kts | 153° |
| 2026-04-27 17:01 | 9.62699 | 44.04183 | 27943 ft | 487 kts | 153° |
| 2026-04-27 17:02 | 9.59629 | 44.05649 | 28101 ft | 489 kts | 153° |
| 2026-04-27 17:02 | 9.56548 | 44.07119 | 28258 ft | 490 kts | 153° |
| 2026-04-27 17:02 | 9.53459 | 44.08575 | 28410 ft | 492 kts | 155° |
| 2026-04-27 17:03 | 9.46840 | 44.10434 | 28787 ft | 494 kts | 168° |
| 2026-04-27 17:03 | 9.43471 | 44.11069 | 29151 ft | 491 kts | 168° |
| 2026-04-27 17:03 | 9.40116 | 44.11720 | 29362 ft | 491 kts | 168° |
| 2026-04-27 17:03 | 9.36750 | 44.12393 | 29489 ft | 494 kts | 167° |
| 2026-04-27 17:04 | 9.33416 | 44.13077 | 29647 ft | 495 kts | 167° |
| 2026-04-27 17:04 | 9.30003 | 44.13786 | 29923 ft | 493 kts | 167° |
| 2026-04-27 17:04 | 9.26656 | 44.14485 | 30207 ft | 491 kts | 167° |
| 2026-04-27 17:04 | 9.23361 | 44.15173 | 30456 ft | 490 kts | 167° |
| 2026-04-27 17:05 | 9.20014 | 44.15871 | 30643 ft | 490 kts | 167° |
| 2026-04-27 17:05 | 9.16663 | 44.16569 | 30798 ft | 491 kts | 167° |
| 2026-04-27 17:05 | 9.13321 | 44.17264 | 30997 ft | 491 kts | 167° |
| 2026-04-27 17:05 | 9.11065 | 44.17732 | 31171 ft | 490 kts | 167° |
| 2026-04-27 17:06 | 9.06616 | 44.18656 | 31536 ft | 487 kts | 167° |
| 2026-04-27 17:06 | 9.03305 | 44.19344 | 31776 ft | 487 kts | 167° |
| 2026-04-27 17:06 | 8.99992 | 44.20032 | 31964 ft | 488 kts | 167° |
| 2026-04-27 17:06 | 8.96673 | 44.20721 | 32161 ft | 488 kts | 167° |
| 2026-04-27 17:07 | 8.93348 | 44.21411 | 32423 ft | 487 kts | 167° |
| 2026-04-27 17:07 | 8.90052 | 44.22109 | 32730 ft | 485 kts | 166° |
| 2026-04-27 17:07 | 8.86776 | 44.22864 | 33024 ft | 483 kts | 166° |
| 2026-04-27 17:07 | 8.84570 | 44.23396 | 33189 ft | 483 kts | 165° |
| 2026-04-27 17:08 | 8.81313 | 44.24194 | 33393 ft | 483 kts | 165° |
| 2026-04-27 17:08 | 8.78036 | 44.25001 | 33589 ft | 484 kts | 165° |
| 2026-04-27 17:08 | 8.74776 | 44.25799 | 33876 ft | 482 kts | 165° |
| 2026-04-27 17:08 | 8.71517 | 44.26590 | 34172 ft | 479 kts | 166° |
| 2026-04-27 17:09 | 8.68284 | 44.27371 | 34449 ft | 477 kts | 166° |
| 2026-04-27 17:09 | 8.65061 | 44.28145 | 34658 ft | 477 kts | 166° |
| 2026-04-27 17:09 | 8.61838 | 44.28917 | 34805 ft | 478 kts | 166° |
| 2026-04-27 17:09 | 8.58605 | 44.29691 | 34962 ft | 479 kts | 166° |
| 2026-04-27 17:10 | 8.55321 | 44.30477 | 35195 ft | 478 kts | 166° |
| 2026-04-27 17:10 | 8.52135 | 44.31238 | 35463 ft | 475 kts | 166° |
| 2026-04-27 17:10 | 8.48881 | 44.32017 | 35703 ft | 474 kts | 166° |
| 2026-04-27 17:10 | 8.45674 | 44.32784 | 35865 ft | 475 kts | 166° |
| 2026-04-27 17:11 | 8.42463 | 44.33553 | 35998 ft | 476 kts | 166° |
| 2026-04-27 17:11 | 8.36032 | 44.35091 | 36433 ft | 473 kts | 166° |
| 2026-04-27 17:11 | 8.32826 | 44.35858 | 36681 ft | 471 kts | 166° |
| 2026-04-27 17:12 | 8.26457 | 44.37381 | 36908 ft | 473 kts | 166° |
| 2026-04-27 17:12 | 8.23253 | 44.38147 | 36880 ft | 475 kts | 166° |
| 2026-04-27 17:13 | 8.16851 | 44.39677 | 36890 ft | 472 kts | 166° |
| 2026-04-27 17:13 | 8.10445 | 44.41207 | 36904 ft | 470 kts | 166° |
| 2026-04-27 17:14 | 8.04104 | 44.42722 | 36914 ft | 468 kts | 166° |
| 2026-04-27 17:14 | 7.97780 | 44.44232 | 36909 ft | 467 kts | 166° |
| 2026-04-27 17:15 | 7.91469 | 44.45738 | 36898 ft | 468 kts | 166° |
| 2026-04-27 17:15 | 7.85105 | 44.47257 | 36904 ft | 468 kts | 166° |
| 2026-04-27 17:16 | 7.78773 | 44.48768 | 36922 ft | 469 kts | 166° |
| 2026-04-27 17:16 | 7.72424 | 44.50282 | 36909 ft | 471 kts | 166° |
| 2026-04-27 17:17 | 7.66015 | 44.51809 | 36904 ft | 472 kts | 166° |
| 2026-04-27 17:17 | 7.59609 | 44.53336 | 36924 ft | 473 kts | 166° |
| 2026-04-27 17:18 | 7.50000 | 44.55625 | 36928 ft | 474 kts | 166° |
| 2026-04-27 17:18 | 7.43581 | 44.57154 | 36905 ft | 475 kts | 166° |
| 2026-04-27 17:19 | 7.37111 | 44.58694 | 36930 ft | 475 kts | 166° |
| 2026-04-27 17:19 | 7.30710 | 44.60217 | 36910 ft | 475 kts | 166° |
| 2026-04-27 17:20 | 7.24304 | 44.61741 | 36928 ft | 473 kts | 166° |
| 2026-04-27 17:20 | 7.17858 | 44.63275 | 36901 ft | 473 kts | 166° |
| 2026-04-27 17:21 | 7.11461 | 44.64796 | 36921 ft | 472 kts | 166° |
| 2026-04-27 17:21 | 7.05072 | 44.66315 | 36902 ft | 471 kts | 165° |
| 2026-04-27 17:22 | 6.98716 | 44.67825 | 36911 ft | 470 kts | 165° |
| 2026-04-27 17:22 | 6.92349 | 44.69338 | 36905 ft | 469 kts | 165° |
| 2026-04-27 17:23 | 6.86005 | 44.70845 | 36898 ft | 469 kts | 165° |
| 2026-04-27 17:23 | 6.79661 | 44.72352 | 36902 ft | 469 kts | 165° |
| 2026-04-27 17:24 | 6.73274 | 44.73868 | 36906 ft | 469 kts | 165° |
| 2026-04-27 17:24 | 6.66929 | 44.75382 | 36909 ft | 470 kts | 165° |
| 2026-04-27 17:25 | 6.60583 | 44.76911 | 36897 ft | 471 kts | 165° |
| 2026-04-27 17:25 | 6.54172 | 44.78457 | 36904 ft | 471 kts | 165° |
| 2026-04-27 17:26 | 6.47805 | 44.79989 | 36898 ft | 472 kts | 165° |
| 2026-04-27 17:26 | 6.41412 | 44.81527 | 36902 ft | 472 kts | 165° |
| 2026-04-27 17:27 | 6.35032 | 44.83061 | 36899 ft | 473 kts | 165° |
| 2026-04-27 17:27 | 6.28648 | 44.84595 | 36909 ft | 473 kts | 165° |
| 2026-04-27 17:28 | 6.22210 | 44.86142 | 36894 ft | 473 kts | 165° |
| 2026-04-27 17:29 | 6.12613 | 44.88448 | 36903 ft | 473 kts | 165° |
| 2026-04-27 17:29 | 6.06240 | 44.89978 | 36900 ft | 473 kts | 165° |
| 2026-04-27 17:30 | 5.99816 | 44.91521 | 36897 ft | 472 kts | 165° |
| 2026-04-27 17:30 | 5.90234 | 44.93821 | 36910 ft | 471 kts | 165° |
| 2026-04-27 17:31 | 5.83866 | 44.95349 | 36887 ft | 472 kts | 165° |
| 2026-04-27 17:31 | 5.77485 | 44.96880 | 36907 ft | 471 kts | 165° |
| 2026-04-27 17:32 | 5.67931 | 44.99171 | 36892 ft | 470 kts | 165° |
| 2026-04-27 17:33 | 5.61571 | 45.00696 | 36912 ft | 470 kts | 165° |
| 2026-04-27 17:33 | 5.55209 | 45.02221 | 36894 ft | 470 kts | 165° |
| 2026-04-27 17:34 | 5.48861 | 45.03742 | 36913 ft | 469 kts | 165° |
| 2026-04-27 17:34 | 5.42511 | 45.05264 | 36891 ft | 469 kts | 165° |
| 2026-04-27 17:35 | 5.36158 | 45.06786 | 36912 ft | 469 kts | 165° |
| 2026-04-27 17:35 | 5.29816 | 45.08305 | 36896 ft | 469 kts | 165° |
| 2026-04-27 17:36 | 5.23463 | 45.09827 | 36904 ft | 469 kts | 165° |
| 2026-04-27 17:36 | 5.17118 | 45.11346 | 36901 ft | 469 kts | 165° |
| 2026-04-27 17:37 | 5.10768 | 45.12866 | 36907 ft | 469 kts | 165° |
| 2026-04-27 17:37 | 5.04398 | 45.14251 | 36896 ft | 469 kts | 168° |
| 2026-04-27 17:38 | 4.97966 | 45.15383 | 36919 ft | 469 kts | 169° |
| 2026-04-27 17:38 | 4.91541 | 45.16494 | 36894 ft | 469 kts | 169° |
| 2026-04-27 17:39 | 4.85119 | 45.17637 | 36909 ft | 468 kts | 169° |
| 2026-04-27 17:39 | 4.78704 | 45.18797 | 36908 ft | 468 kts | 168° |
| 2026-04-27 17:40 | 4.72299 | 45.19959 | 36900 ft | 468 kts | 168° |
| 2026-04-27 17:40 | 4.65889 | 45.21120 | 36912 ft | 467 kts | 168° |
| 2026-04-27 17:41 | 4.59487 | 45.22279 | 36893 ft | 468 kts | 168° |
| 2026-04-27 17:41 | 4.53088 | 45.23437 | 36908 ft | 467 kts | 168° |
| 2026-04-27 17:42 | 4.46692 | 45.24595 | 36894 ft | 467 kts | 168° |
| 2026-04-27 17:42 | 4.40301 | 45.25751 | 36904 ft | 466 kts | 168° |
| 2026-04-27 17:43 | 4.33917 | 45.26905 | 36894 ft | 466 kts | 168° |
| 2026-04-27 17:43 | 4.27533 | 45.28060 | 36904 ft | 466 kts | 168° |
| 2026-04-27 17:44 | 4.21158 | 45.29212 | 36896 ft | 465 kts | 168° |
| 2026-04-27 17:44 | 4.14788 | 45.30364 | 36895 ft | 465 kts | 168° |
| 2026-04-27 17:45 | 4.08426 | 45.31514 | 36900 ft | 465 kts | 168° |
| 2026-04-27 17:45 | 4.02059 | 45.32665 | 36894 ft | 465 kts | 168° |
| 2026-04-27 17:46 | 3.96772 | 45.33620 | 36793 ft | 466 kts | 168° |
| 2026-04-27 17:46 | 3.93552 | 45.34203 | 36032 ft | 474 kts | 168° |
| 2026-04-27 17:46 | 3.90328 | 45.34773 | 35698 ft | 466 kts | 170° |
| 2026-04-27 17:46 | 3.87073 | 45.35052 | 34643 ft | 478 kts | 181° |
| 2026-04-27 17:47 | 3.83755 | 45.34704 | 34132 ft | 477 kts | 186° |
| 2026-04-27 17:47 | 3.81515 | 45.34433 | 33257 ft | 486 kts | 185° |
| 2026-04-27 17:47 | 3.77072 | 45.33982 | 32407 ft | 483 kts | 184° |
| 2026-04-27 17:47 | 3.73694 | 45.33673 | 31618 ft | 486 kts | 183° |
| 2026-04-27 17:48 | 3.70325 | 45.33375 | 30641 ft | 492 kts | 183° |
| 2026-04-27 17:48 | 3.66928 | 45.33077 | 30229 ft | 485 kts | 183° |
| 2026-04-27 17:48 | 3.63558 | 45.32777 | 29401 ft | 487 kts | 183° |
| 2026-04-27 17:48 | 3.60221 | 45.32475 | 28898 ft | 479 kts | 183° |
| 2026-04-27 17:49 | 3.56902 | 45.32173 | 28343 ft | 475 kts | 183° |
| 2026-04-27 17:49 | 3.53627 | 45.31872 | 27676 ft | 473 kts | 183° |
| 2026-04-27 17:49 | 3.50370 | 45.31573 | 27223 ft | 466 kts | 184° |
| 2026-04-27 17:49 | 3.47147 | 45.31276 | 26599 ft | 464 kts | 184° |
| 2026-04-27 17:50 | 3.43947 | 45.30982 | 26089 ft | 460 kts | 184° |
| 2026-04-27 17:50 | 3.37620 | 45.30401 | 24974 ft | 454 kts | 184° |
| 2026-04-27 17:50 | 3.34481 | 45.30113 | 24419 ft | 451 kts | 184° |
| 2026-04-27 17:51 | 3.31321 | 45.29823 | 23868 ft | 449 kts | 184° |
| 2026-04-27 17:51 | 3.28220 | 45.29538 | 23285 ft | 446 kts | 184° |
| 2026-04-27 17:51 | 3.25163 | 45.29257 | 22670 ft | 434 kts | 184° |
| 2026-04-27 17:51 | 3.22245 | 45.28988 | 22177 ft | 421 kts | 184° |
| 2026-04-27 17:52 | 3.19366 | 45.28723 | 21637 ft | 409 kts | 184° |
| 2026-04-27 17:52 | 3.16530 | 45.28462 | 21137 ft | 398 kts | 184° |
| 2026-04-27 17:52 | 3.13808 | 45.28212 | 20653 ft | 389 kts | 184° |
| 2026-04-27 17:52 | 3.11138 | 45.27967 | 20179 ft | 381 kts | 184° |
| 2026-04-27 17:53 | 3.08522 | 45.27728 | 19712 ft | 375 kts | 184° |
| 2026-04-27 17:53 | 3.05952 | 45.27492 | 19273 ft | 380 kts | 184° |
| 2026-04-27 17:53 | 3.03260 | 45.27247 | 18765 ft | 395 kts | 184° |
| 2026-04-27 17:53 | 3.00524 | 45.26997 | 18273 ft | 391 kts | 184° |
| 2026-04-27 17:54 | 2.97852 | 45.26752 | 17731 ft | 380 kts | 184° |
| 2026-04-27 17:54 | 2.95254 | 45.26512 | 17235 ft | 369 kts | 184° |
| 2026-04-27 17:54 | 2.92730 | 45.26280 | 16772 ft | 361 kts | 184° |
| 2026-04-27 17:54 | 2.90252 | 45.26052 | 16319 ft | 354 kts | 184° |
| 2026-04-27 17:55 | 2.87806 | 45.25828 | 15880 ft | 352 kts | 184° |
| 2026-04-27 17:55 | 2.85304 | 45.25599 | 15449 ft | 367 kts | 184° |
| 2026-04-27 17:55 | 2.82717 | 45.25363 | 14969 ft | 377 kts | 184° |
| 2026-04-27 17:55 | 2.80152 | 45.25128 | 14493 ft | 368 kts | 184° |
| 2026-04-27 17:56 | 2.77638 | 45.24897 | 14033 ft | 357 kts | 184° |
| 2026-04-27 17:56 | 2.75191 | 45.24672 | 13552 ft | 349 kts | 184° |
| 2026-04-27 17:56 | 2.72792 | 45.24451 | 13098 ft | 344 kts | 184° |
| 2026-04-27 17:56 | 2.70424 | 45.24234 | 12637 ft | 340 kts | 184° |
| 2026-04-27 17:57 | 2.68048 | 45.24016 | 12204 ft | 349 kts | 184° |
| 2026-04-27 17:57 | 2.65580 | 45.23791 | 11761 ft | 361 kts | 184° |
| 2026-04-27 17:57 | 2.63088 | 45.23563 | 11260 ft | 356 kts | 184° |
| 2026-04-27 17:57 | 2.60660 | 45.23339 | 10836 ft | 345 kts | 184° |
| 2026-04-27 17:58 | 2.58342 | 45.23126 | 10730 ft | 324 kts | 184° |
| 2026-04-27 17:58 | 2.56134 | 45.22923 | 10548 ft | 313 kts | 184° |
| 2026-04-27 17:58 | 2.54004 | 45.22727 | 10434 ft | 303 kts | 184° |
| 2026-04-27 17:58 | 2.51903 | 45.22535 | 10306 ft | 306 kts | 184° |
| 2026-04-27 17:59 | 2.49771 | 45.22340 | 10185 ft | 305 kts | 184° |
| 2026-04-27 17:59 | 2.47700 | 45.22150 | 10043 ft | 292 kts | 184° |
| 2026-04-27 17:59 | 2.45725 | 45.21968 | 9910 ft | 278 kts | 184° |
| 2026-04-27 17:59 | 2.43826 | 45.21794 | 9615 ft | 272 kts | 184° |
| 2026-04-27 18:00 | 2.41971 | 45.21624 | 9349 ft | 265 kts | 184° |
| 2026-04-27 18:00 | 2.40136 | 45.21456 | 9082 ft | 265 kts | 184° |
| 2026-04-27 18:00 | 2.38295 | 45.21287 | 8815 ft | 268 kts | 184° |
| 2026-04-27 18:00 | 2.36392 | 45.21114 | 8563 ft | 280 kts | 184° |
| 2026-04-27 18:01 | 2.34434 | 45.20935 | 8268 ft | 284 kts | 184° |
| 2026-04-27 18:01 | 2.32488 | 45.20756 | 7963 ft | 277 kts | 184° |
| 2026-04-27 18:01 | 2.30594 | 45.20582 | 7674 ft | 270 kts | 184° |
| 2026-04-27 18:01 | 2.28731 | 45.20411 | 7412 ft | 268 kts | 184° |
| 2026-04-27 18:02 | 2.26874 | 45.20241 | 7135 ft | 268 kts | 184° |
| 2026-04-27 18:02 | 2.25014 | 45.20071 | 6863 ft | 268 kts | 185° |
| 2026-04-27 18:02 | 2.23151 | 45.19900 | 6572 ft | 269 kts | 185° |
| 2026-04-27 18:02 | 2.21279 | 45.19729 | 6300 ft | 270 kts | 185° |
| 2026-04-27 18:03 | 2.19408 | 45.19557 | 5977 ft | 271 kts | 185° |
| 2026-04-27 18:03 | 2.17511 | 45.19383 | 5578 ft | 276 kts | 185° |
| 2026-04-27 18:03 | 2.15604 | 45.19209 | 5331 ft | 274 kts | 185° |
| 2026-04-27 18:03 | 2.13691 | 45.19033 | 5085 ft | 272 kts | 185° |
| 2026-04-27 18:04 | 2.11808 | 45.18860 | 4799 ft | 272 kts | 185° |
| 2026-04-27 18:04 | 2.09929 | 45.18688 | 4532 ft | 271 kts | 185° |
| 2026-04-27 18:04 | 2.08044 | 45.18515 | 3866 ft | 283 kts | 185° |
| 2026-04-27 18:04 | 2.06151 | 45.18342 | 3913 ft | 259 kts | 186° |
| 2026-04-27 18:05 | 2.04391 | 45.18181 | 3754 ft | 242 kts | 186° |
| 2026-04-27 18:05 | 2.02806 | 45.18036 | 3653 ft | 222 kts | 186° |
| 2026-04-27 18:05 | 2.01329 | 45.17901 | 3536 ft | 204 kts | 186° |
| 2026-04-27 18:05 | 1.99977 | 45.17778 | 3426 ft | 186 kts | 186° |
| 2026-04-27 18:06 | 1.98707 | 45.17661 | 3277 ft | 187 kts | 186° |
| 2026-04-27 18:06 | 1.97401 | 45.17541 | 3064 ft | 187 kts | 186° |
| 2026-04-27 18:06 | 1.96104 | 45.17422 | 3033 ft | 187 kts | 186° |
| 2026-04-27 18:06 | 1.94806 | 45.17303 | 2998 ft | 186 kts | 186° |
| 2026-04-27 18:07 | 1.93545 | 45.17507 | 2964 ft | 186 kts | 147° |
| 2026-04-27 18:07 | 1.92823 | 45.18477 | 3002 ft | 171 kts | 105° |
| 2026-04-27 18:07 | 1.92843 | 45.19607 | 2787 ft | 160 kts | 70° |
| 2026-04-27 18:07 | 1.93428 | 45.20515 | 2530 ft | 155 kts | 44° |
| 2026-04-27 18:08 | 1.94136 | 45.21359 | 2139 ft | 158 kts | 51° |
| 2026-04-27 18:08 | 1.94793 | 45.22218 | 1878 ft | 154 kts | 52° |
| 2026-04-27 18:08 | 1.95437 | 45.23077 | 1676 ft | 155 kts | 52° |
| 2026-04-27 18:08 | 1.96095 | 45.23931 | 1438 ft | 155 kts | 51° |
| 2026-04-27 18:09 | 1.96761 | 45.24770 | 1234 ft | 154 kts | 50° |
| 2026-04-27 18:09 | 1.97431 | 45.25598 | 1027 ft | 153 kts | 50° |
| 2026-04-27 18:09 | 1.98105 | 45.26420 | 823 ft | 153 kts | 50° |
| 2026-04-27 18:09 | 1.98780 | 45.27238 | 628 ft | 153 kts | 50° |
| 2026-04-27 18:10 | 1.99456 | 45.28055 | 406 ft | 152 kts | 50° |
| 2026-04-27 18:10 | 2.00129 | 45.28865 | 196 ft | 152 kts | 50° |
| 2026-04-27 18:10 | 2.00771 | 45.29651 | 26 ft | 133 kts | 50° |
| 2026-04-27 18:10 | 2.01135 | 45.30088 | 27 ft | 19 kts | 50° |
| 2026-04-27 18:11 | 2.01251 | 45.30145 | 28 ft | 19 kts | 12° |
| 2026-04-27 18:11 | 2.01273 | 45.30149 | 28 ft | 0 kts | 12° |